sensor_id;sensor_type;location;lat;lon;timestamp;temperature;humidity
35894;DHT22;21994;48.204;16.516;2022-10-16T00:01:28;9.90;99.90
35894;DHT22;21994;48.204;16.516;2022-10-16T00:03:56;9.90;99.90
35894;DHT22;21994;48.204;16.516;2022-10-16T00:06:24;9.90;99.90
35894;DHT22;21994;48.204;16.516;2022-10-16T00:08:50;10.00;99.90
35894;DHT22;21994;48.204;16.516;2022-10-16T00:11:23;10.00;99.90
35894;DHT22;21994;48.204;16.516;2022-10-16T00:13:52;10.00;99.90
35894;DHT22;21994;48.204;16.516;2022-10-16T00:16:20;9.90;99.90
35894;DHT22;21994;48.204;16.516;2022-10-16T00:18:47;10.00;99.90
35894;DHT22;21994;48.204;16.516;2022-10-16T00:21:19;9.90;99.90
35894;DHT22;21994;48.204;16.516;2022-10-16T00:23:46;9.80;99.90
35894;DHT22;21994;48.204;16.516;2022-10-16T00:26:17;9.80;99.90
35894;DHT22;21994;48.204;16.516;2022-10-16T00:28:49;9.70;99.90
35894;DHT22;21994;48.204;16.516;2022-10-16T00:31:20;9.60;99.90
35894;DHT22;21994;48.204;16.516;2022-10-16T00:33:47;9.70;99.90
35894;DHT22;21994;48.204;16.516;2022-10-16T00:36:15;9.60;99.90
35894;DHT22;21994;48.204;16.516;2022-10-16T00:38:43;9.60;99.90
35894;DHT22;21994;48.204;16.516;2022-10-16T00:41:16;9.60;99.90
35894;DHT22;21994;48.204;16.516;2022-10-16T00:46:19;9.60;99.90
35894;DHT22;21994;48.204;16.516;2022-10-16T00:48:54;9.60;99.90
35894;DHT22;21994;48.204;16.516;2022-10-16T00:52:12;9.60;99.90
35894;DHT22;21994;48.204;16.516;2022-10-16T00:54:30;9.70;99.90
35894;DHT22;21994;48.204;16.516;2022-10-16T00:57:00;9.70;99.90
35894;DHT22;21994;48.204;16.516;2022-10-16T00:59:33;9.80;99.90
35894;DHT22;21994;48.204;16.516;2022-10-16T01:02:05;9.80;99.90
35894;DHT22;21994;48.204;16.516;2022-10-16T01:04:39;9.80;99.90
35894;DHT22;21994;48.204;16.516;2022-10-16T01:13:13;9.70;99.90
35894;DHT22;21994;48.204;16.516;2022-10-16T01:16:29;9.70;99.90
35894;DHT22;21994;48.204;16.516;2022-10-16T01:22:26;9.70;99.90
35894;DHT22;21994;48.204;16.516;2022-10-16T01:25:06;9.80;99.90
35894;DHT22;21994;48.204;16.516;2022-10-16T01:27:36;9.70;99.90
35894;DHT22;21994;48.204;16.516;2022-10-16T01:30:23;9.60;99.90
35894;DHT22;21994;48.204;16.516;2022-10-16T01:33:08;9.50;99.90
35894;DHT22;21994;48.204;16.516;2022-10-16T01:35:40;9.50;99.90
35894;DHT22;21994;48.204;16.516;2022-10-16T01:38:31;9.50;99.90
35894;DHT22;21994;48.204;16.516;2022-10-16T01:41:20;9.40;99.90
35894;DHT22;21994;48.204;16.516;2022-10-16T01:46:31;9.30;99.90
35894;DHT22;21994;48.204;16.516;2022-10-16T01:48:58;9.30;99.90
35894;DHT22;21994;48.204;16.516;2022-10-16T01:51:26;9.30;99.90
35894;DHT22;21994;48.204;16.516;2022-10-16T01:53:55;9.20;99.90
35894;DHT22;21994;48.204;16.516;2022-10-16T01:56:24;9.20;99.90
35894;DHT22;21994;48.204;16.516;2022-10-16T01:59:11;9.20;99.90
35894;DHT22;21994;48.204;16.516;2022-10-16T02:01:41;9.10;99.90
35894;DHT22;21994;48.204;16.516;2022-10-16T02:04:33;9.10;99.90
35894;DHT22;21994;48.204;16.516;2022-10-16T02:07:01;9.10;99.90
35894;DHT22;21994;48.204;16.516;2022-10-16T02:09:29;9.00;99.90
35894;DHT22;21994;48.204;16.516;2022-10-16T02:11:57;9.10;99.90
35894;DHT22;21994;48.204;16.516;2022-10-16T02:14:25;8.90;99.90
35894;DHT22;21994;48.204;16.516;2022-10-16T02:16:51;8.90;99.90
35894;DHT22;21994;48.204;16.516;2022-10-16T02:19:18;8.90;99.90
35894;DHT22;21994;48.204;16.516;2022-10-16T02:21:56;8.90;99.90
35894;DHT22;21994;48.204;16.516;2022-10-16T02:24:28;9.00;99.90
35894;DHT22;21994;48.204;16.516;2022-10-16T02:27:03;9.00;99.90
35894;DHT22;21994;48.204;16.516;2022-10-16T02:29:36;9.00;99.90
35894;DHT22;21994;48.204;16.516;2022-10-16T02:32:05;9.00;99.90
35894;DHT22;21994;48.204;16.516;2022-10-16T02:34:33;9.10;99.90
35894;DHT22;21994;48.204;16.516;2022-10-16T02:37:01;9.10;99.90
35894;DHT22;21994;48.204;16.516;2022-10-16T02:39:28;9.10;99.90
35894;DHT22;21994;48.204;16.516;2022-10-16T02:41:54;9.20;99.90
35894;DHT22;21994;48.204;16.516;2022-10-16T02:44:20;9.20;99.90
35894;DHT22;21994;48.204;16.516;2022-10-16T02:46:46;9.30;99.90
35894;DHT22;21994;48.204;16.516;2022-10-16T02:49:12;9.30;99.90
35894;DHT22;21994;48.204;16.516;2022-10-16T02:51:38;9.30;99.90
35894;DHT22;21994;48.204;16.516;2022-10-16T02:54:03;9.40;99.90
35894;DHT22;21994;48.204;16.516;2022-10-16T02:56:30;9.40;99.90
35894;DHT22;21994;48.204;16.516;2022-10-16T02:58:56;9.50;99.90
35894;DHT22;21994;48.204;16.516;2022-10-16T03:01:22;9.50;99.90
35894;DHT22;21994;48.204;16.516;2022-10-16T03:03:49;9.40;99.90
35894;DHT22;21994;48.204;16.516;2022-10-16T03:06:15;9.30;99.90
35894;DHT22;21994;48.204;16.516;2022-10-16T03:08:41;9.30;99.90
35894;DHT22;21994;48.204;16.516;2022-10-16T03:11:07;9.30;99.90
35894;DHT22;21994;48.204;16.516;2022-10-16T03:13:33;9.20;99.90
35894;DHT22;21994;48.204;16.516;2022-10-16T03:15:59;9.20;99.90
35894;DHT22;21994;48.204;16.516;2022-10-16T03:18:24;9.30;99.90
35894;DHT22;21994;48.204;16.516;2022-10-16T03:20:50;9.20;99.90
35894;DHT22;21994;48.204;16.516;2022-10-16T03:23:16;9.10;99.90
35894;DHT22;21994;48.204;16.516;2022-10-16T03:25:42;9.10;99.90
35894;DHT22;21994;48.204;16.516;2022-10-16T03:28:08;9.00;99.90
35894;DHT22;21994;48.204;16.516;2022-10-16T03:30:34;9.00;99.90
35894;DHT22;21994;48.204;16.516;2022-10-16T03:33:00;9.00;99.90
35894;DHT22;21994;48.204;16.516;2022-10-16T03:35:26;9.10;99.90
35894;DHT22;21994;48.204;16.516;2022-10-16T03:37:52;9.10;99.90
35894;DHT22;21994;48.204;16.516;2022-10-16T03:40:18;9.10;99.90
35894;DHT22;21994;48.204;16.516;2022-10-16T03:42:44;9.10;99.90
35894;DHT22;21994;48.204;16.516;2022-10-16T03:45:11;9.10;99.90
35894;DHT22;21994;48.204;16.516;2022-10-16T03:47:37;9.20;99.90
35894;DHT22;21994;48.204;16.516;2022-10-16T03:50:03;9.20;99.90
35894;DHT22;21994;48.204;16.516;2022-10-16T03:52:30;9.10;99.90
35894;DHT22;21994;48.204;16.516;2022-10-16T03:54:57;9.10;99.90
35894;DHT22;21994;48.204;16.516;2022-10-16T03:57:24;9.10;99.90
35894;DHT22;21994;48.204;16.516;2022-10-16T03:59:49;9.10;99.90
35894;DHT22;21994;48.204;16.516;2022-10-16T04:02:16;9.10;99.90
35894;DHT22;21994;48.204;16.516;2022-10-16T04:04:42;9.00;99.90
35894;DHT22;21994;48.204;16.516;2022-10-16T04:07:07;9.00;99.90
35894;DHT22;21994;48.204;16.516;2022-10-16T04:09:33;9.00;99.90
35894;DHT22;21994;48.204;16.516;2022-10-16T04:11:59;9.00;99.90
35894;DHT22;21994;48.204;16.516;2022-10-16T04:14:25;9.00;99.90
35894;DHT22;21994;48.204;16.516;2022-10-16T04:16:51;9.10;99.90
35894;DHT22;21994;48.204;16.516;2022-10-16T04:19:16;9.10;99.90
35894;DHT22;21994;48.204;16.516;2022-10-16T04:21:42;9.00;99.90
35894;DHT22;21994;48.204;16.516;2022-10-16T04:24:08;8.90;99.90
35894;DHT22;21994;48.204;16.516;2022-10-16T04:26:34;9.00;99.90
35894;DHT22;21994;48.204;16.516;2022-10-16T04:29:00;9.00;99.90
35894;DHT22;21994;48.204;16.516;2022-10-16T04:31:26;9.00;99.90
35894;DHT22;21994;48.204;16.516;2022-10-16T04:33:51;8.90;99.90
35894;DHT22;21994;48.204;16.516;2022-10-16T04:36:17;8.90;99.90
35894;DHT22;21994;48.204;16.516;2022-10-16T04:38:43;8.90;99.90
35894;DHT22;21994;48.204;16.516;2022-10-16T04:41:09;8.80;99.90
35894;DHT22;21994;48.204;16.516;2022-10-16T04:43:35;8.80;99.90
35894;DHT22;21994;48.204;16.516;2022-10-16T04:46:01;8.80;99.90
35894;DHT22;21994;48.204;16.516;2022-10-16T04:48:27;9.00;99.90
35894;DHT22;21994;48.204;16.516;2022-10-16T04:50:53;9.00;99.90
35894;DHT22;21994;48.204;16.516;2022-10-16T04:53:18;9.10;99.90
35894;DHT22;21994;48.204;16.516;2022-10-16T04:55:45;9.20;99.90
35894;DHT22;21994;48.204;16.516;2022-10-16T04:58:11;9.40;99.90
35894;DHT22;21994;48.204;16.516;2022-10-16T05:00:37;9.30;99.90
35894;DHT22;21994;48.204;16.516;2022-10-16T05:03:04;9.40;99.90
35894;DHT22;21994;48.204;16.516;2022-10-16T05:05:33;9.50;99.90
35894;DHT22;21994;48.204;16.516;2022-10-16T05:08:00;9.70;99.90
35894;DHT22;21994;48.204;16.516;2022-10-16T05:10:26;9.80;99.90
35894;DHT22;21994;48.204;16.516;2022-10-16T05:12:52;10.10;99.90
35894;DHT22;21994;48.204;16.516;2022-10-16T05:15:18;10.20;99.90
35894;DHT22;21994;48.204;16.516;2022-10-16T05:17:44;10.30;99.90
35894;DHT22;21994;48.204;16.516;2022-10-16T05:20:11;10.40;99.90
35894;DHT22;21994;48.204;16.516;2022-10-16T05:22:37;10.50;99.90
35894;DHT22;21994;48.204;16.516;2022-10-16T05:25:03;10.50;99.90
35894;DHT22;21994;48.204;16.516;2022-10-16T05:27:29;10.70;99.90
35894;DHT22;21994;48.204;16.516;2022-10-16T05:29:55;10.80;99.90
35894;DHT22;21994;48.204;16.516;2022-10-16T05:32:21;10.80;99.90
35894;DHT22;21994;48.204;16.516;2022-10-16T05:34:46;10.90;99.90
35894;DHT22;21994;48.204;16.516;2022-10-16T05:37:12;10.90;99.90
35894;DHT22;21994;48.204;16.516;2022-10-16T05:39:38;10.90;99.90
35894;DHT22;21994;48.204;16.516;2022-10-16T05:42:05;10.90;99.90
35894;DHT22;21994;48.204;16.516;2022-10-16T05:44:31;10.80;99.90
35894;DHT22;21994;48.204;16.516;2022-10-16T05:46:57;10.90;99.90
35894;DHT22;21994;48.204;16.516;2022-10-16T05:49:22;10.80;99.90
35894;DHT22;21994;48.204;16.516;2022-10-16T05:51:48;10.80;99.90
35894;DHT22;21994;48.204;16.516;2022-10-16T05:54:14;10.80;99.90
35894;DHT22;21994;48.204;16.516;2022-10-16T05:56:40;10.80;99.90
35894;DHT22;21994;48.204;16.516;2022-10-16T05:59:06;10.80;99.90
35894;DHT22;21994;48.204;16.516;2022-10-16T06:01:32;10.90;99.90
35894;DHT22;21994;48.204;16.516;2022-10-16T06:03:58;10.80;99.90
35894;DHT22;21994;48.204;16.516;2022-10-16T06:06:26;10.90;99.90
35894;DHT22;21994;48.204;16.516;2022-10-16T06:08:54;10.90;99.90
35894;DHT22;21994;48.204;16.516;2022-10-16T06:11:26;11.10;99.90
35894;DHT22;21994;48.204;16.516;2022-10-16T06:13:57;11.10;99.90
35894;DHT22;21994;48.204;16.516;2022-10-16T06:16:27;11.10;99.90
35894;DHT22;21994;48.204;16.516;2022-10-16T06:18:55;11.40;99.90
35894;DHT22;21994;48.204;16.516;2022-10-16T06:21:28;11.50;99.90
35894;DHT22;21994;48.204;16.516;2022-10-16T06:23:55;11.70;99.90
35894;DHT22;21994;48.204;16.516;2022-10-16T06:26:23;11.80;99.90
35894;DHT22;21994;48.204;16.516;2022-10-16T06:28:50;11.90;99.90
35894;DHT22;21994;48.204;16.516;2022-10-16T06:31:17;12.00;99.90
35894;DHT22;21994;48.204;16.516;2022-10-16T06:33:43;12.20;99.90
35894;DHT22;21994;48.204;16.516;2022-10-16T06:36:15;12.20;99.90
35894;DHT22;21994;48.204;16.516;2022-10-16T06:38:43;12.30;99.90
35894;DHT22;21994;48.204;16.516;2022-10-16T06:41:14;12.50;99.90
35894;DHT22;21994;48.204;16.516;2022-10-16T06:43:41;12.70;99.90
35894;DHT22;21994;48.204;16.516;2022-10-16T06:46:10;12.70;99.90
35894;DHT22;21994;48.204;16.516;2022-10-16T06:48:37;12.90;99.90
35894;DHT22;21994;48.204;16.516;2022-10-16T06:53:36;12.90;99.90
35894;DHT22;21994;48.204;16.516;2022-10-16T06:56:18;12.90;99.90
35894;DHT22;21994;48.204;16.516;2022-10-16T06:58:45;12.90;99.90
35894;DHT22;21994;48.204;16.516;2022-10-16T07:01:12;13.00;99.90
35894;DHT22;21994;48.204;16.516;2022-10-16T07:03:42;13.00;99.90
35894;DHT22;21994;48.204;16.516;2022-10-16T07:06:11;13.10;99.90
35894;DHT22;21994;48.204;16.516;2022-10-16T07:08:40;13.20;99.90
35894;DHT22;21994;48.204;16.516;2022-10-16T07:11:12;13.30;99.90
35894;DHT22;21994;48.204;16.516;2022-10-16T07:13:43;13.30;99.90
35894;DHT22;21994;48.204;16.516;2022-10-16T07:16:19;13.40;99.90
35894;DHT22;21994;48.204;16.516;2022-10-16T07:18:46;13.30;99.90
35894;DHT22;21994;48.204;16.516;2022-10-16T07:21:16;13.40;99.90
35894;DHT22;21994;48.204;16.516;2022-10-16T07:23:44;13.50;99.90
35894;DHT22;21994;48.204;16.516;2022-10-16T07:26:11;13.50;99.90
35894;DHT22;21994;48.204;16.516;2022-10-16T07:28:37;13.50;99.90
35894;DHT22;21994;48.204;16.516;2022-10-16T07:31:07;13.50;99.90
35894;DHT22;21994;48.204;16.516;2022-10-16T07:33:40;13.50;99.90
35894;DHT22;21994;48.204;16.516;2022-10-16T07:36:08;13.60;99.90
35894;DHT22;21994;48.204;16.516;2022-10-16T07:38:34;13.70;99.90
35894;DHT22;21994;48.204;16.516;2022-10-16T07:41:02;13.70;99.90
35894;DHT22;21994;48.204;16.516;2022-10-16T07:43:30;13.90;99.90
35894;DHT22;21994;48.204;16.516;2022-10-16T07:45:56;14.00;99.90
35894;DHT22;21994;48.204;16.516;2022-10-16T07:48:23;14.10;99.90
35894;DHT22;21994;48.204;16.516;2022-10-16T07:50:51;14.10;99.90
35894;DHT22;21994;48.204;16.516;2022-10-16T07:53:17;14.10;99.90
35894;DHT22;21994;48.204;16.516;2022-10-16T07:55:43;14.20;99.90
35894;DHT22;21994;48.204;16.516;2022-10-16T07:58:09;14.20;99.90
35894;DHT22;21994;48.204;16.516;2022-10-16T08:00:36;14.30;99.90
35894;DHT22;21994;48.204;16.516;2022-10-16T08:03:03;14.20;99.90
35894;DHT22;21994;48.204;16.516;2022-10-16T08:05:31;14.10;99.90
35894;DHT22;21994;48.204;16.516;2022-10-16T08:07:57;13.90;99.90
35894;DHT22;21994;48.204;16.516;2022-10-16T08:10:25;13.90;99.90
35894;DHT22;21994;48.204;16.516;2022-10-16T08:12:52;13.80;99.90
35894;DHT22;21994;48.204;16.516;2022-10-16T08:15:19;13.90;99.90
35894;DHT22;21994;48.204;16.516;2022-10-16T08:17:53;14.10;99.90
35894;DHT22;21994;48.204;16.516;2022-10-16T08:20:22;14.30;99.90
35894;DHT22;21994;48.204;16.516;2022-10-16T08:22:48;14.60;99.90
35894;DHT22;21994;48.204;16.516;2022-10-16T08:25:14;14.90;99.90
35894;DHT22;21994;48.204;16.516;2022-10-16T08:27:40;15.20;99.90
35894;DHT22;21994;48.204;16.516;2022-10-16T08:30:08;15.30;99.90
35894;DHT22;21994;48.204;16.516;2022-10-16T08:32:34;15.20;99.90
35894;DHT22;21994;48.204;16.516;2022-10-16T08:35:00;15.10;99.90
35894;DHT22;21994;48.204;16.516;2022-10-16T08:37:30;15.10;99.90
35894;DHT22;21994;48.204;16.516;2022-10-16T08:39:57;15.10;99.90
35894;DHT22;21994;48.204;16.516;2022-10-16T08:50:29;15.10;99.90
35894;DHT22;21994;48.204;16.516;2022-10-16T08:52:57;15.10;99.90
35894;DHT22;21994;48.204;16.516;2022-10-16T09:00:39;15.20;99.90
35894;DHT22;21994;48.204;16.516;2022-10-16T09:03:51;15.30;99.90
35894;DHT22;21994;48.204;16.516;2022-10-16T09:06:47;15.50;99.90
35894;DHT22;21994;48.204;16.516;2022-10-16T09:12:53;15.80;99.90
35894;DHT22;21994;48.204;16.516;2022-10-16T09:15:55;16.10;99.90
35894;DHT22;21994;48.204;16.516;2022-10-16T09:21:45;17.60;99.90
35894;DHT22;21994;48.204;16.516;2022-10-16T09:24:21;18.90;99.90
35894;DHT22;21994;48.204;16.516;2022-10-16T09:26:49;20.00;99.90
35894;DHT22;21994;48.204;16.516;2022-10-16T09:29:18;21.00;99.90
35894;DHT22;21994;48.204;16.516;2022-10-16T09:31:51;21.50;99.90
35894;DHT22;21994;48.204;16.516;2022-10-16T09:36:57;22.80;99.90
35894;DHT22;21994;48.204;16.516;2022-10-16T09:39:24;23.00;99.90
35894;DHT22;21994;48.204;16.516;2022-10-16T09:41:50;22.40;99.90
35894;DHT22;21994;48.204;16.516;2022-10-16T09:44:29;22.40;99.90
35894;DHT22;21994;48.204;16.516;2022-10-16T09:47:15;22.00;99.90
35894;DHT22;21994;48.204;16.516;2022-10-16T09:49:54;21.90;99.90
35894;DHT22;21994;48.204;16.516;2022-10-16T09:52:21;22.40;99.90
35894;DHT22;21994;48.204;16.516;2022-10-16T09:55:08;23.10;99.90
35894;DHT22;21994;48.204;16.516;2022-10-16T09:57:52;23.10;99.90
35894;DHT22;21994;48.204;16.516;2022-10-16T10:00:22;23.50;99.90
35894;DHT22;21994;48.204;16.516;2022-10-16T10:02:49;23.70;99.90
35894;DHT22;21994;48.204;16.516;2022-10-16T10:05:25;24.00;99.90
35894;DHT22;21994;48.204;16.516;2022-10-16T10:08:01;24.00;99.90
35894;DHT22;21994;48.204;16.516;2022-10-16T10:10:41;24.20;99.90
35894;DHT22;21994;48.204;16.516;2022-10-16T10:13:19;24.90;99.90
35894;DHT22;21994;48.204;16.516;2022-10-16T10:15:47;24.60;99.70
35894;DHT22;21994;48.204;16.516;2022-10-16T10:18:18;24.10;99.90
35894;DHT22;21994;48.204;16.516;2022-10-16T10:20:57;23.90;99.90
35894;DHT22;21994;48.204;16.516;2022-10-16T10:23:26;24.10;99.90
35894;DHT22;21994;48.204;16.516;2022-10-16T10:26:07;24.30;99.90
35894;DHT22;21994;48.204;16.516;2022-10-16T10:31:54;24.10;99.90
35894;DHT22;21994;48.204;16.516;2022-10-16T10:40:40;23.90;99.90
35894;DHT22;21994;48.204;16.516;2022-10-16T10:46:04;23.30;99.90
35894;DHT22;21994;48.204;16.516;2022-10-16T10:54:38;24.00;99.90
35894;DHT22;21994;48.204;16.516;2022-10-16T11:00:15;23.50;99.90
35894;DHT22;21994;48.204;16.516;2022-10-16T11:03:04;23.10;99.90
35894;DHT22;21994;48.204;16.516;2022-10-16T11:06:32;22.90;99.90
35894;DHT22;21994;48.204;16.516;2022-10-16T11:09:24;22.60;99.90
35894;DHT22;21994;48.204;16.516;2022-10-16T11:12:18;22.00;99.90
35894;DHT22;21994;48.204;16.516;2022-10-16T11:20:20;21.50;99.90
35894;DHT22;21994;48.204;16.516;2022-10-16T11:23:05;21.50;99.90
35894;DHT22;21994;48.204;16.516;2022-10-16T11:25:39;21.40;99.90
35894;DHT22;21994;48.204;16.516;2022-10-16T11:28:17;21.40;99.90
35894;DHT22;21994;48.204;16.516;2022-10-16T11:30:55;21.40;99.90
35894;DHT22;21994;48.204;16.516;2022-10-16T11:33:36;21.60;99.90
35894;DHT22;21994;48.204;16.516;2022-10-16T11:38:58;21.50;99.90
35894;DHT22;21994;48.204;16.516;2022-10-16T11:41:45;21.60;99.90
35894;DHT22;21994;48.204;16.516;2022-10-16T11:49:51;21.70;99.90
35894;DHT22;21994;48.204;16.516;2022-10-16T11:57:33;21.70;99.90
35894;DHT22;21994;48.204;16.516;2022-10-16T12:00:23;21.80;99.90
35894;DHT22;21994;48.204;16.516;2022-10-16T12:06:05;21.90;99.90
35894;DHT22;21994;48.204;16.516;2022-10-16T12:08:50;21.90;99.90
35894;DHT22;21994;48.204;16.516;2022-10-16T12:11:32;21.80;99.90
35894;DHT22;21994;48.204;16.516;2022-10-16T12:19:21;21.80;99.90
35894;DHT22;21994;48.204;16.516;2022-10-16T12:21:50;21.80;99.90
35894;DHT22;21994;48.204;16.516;2022-10-16T12:24:39;21.90;99.90
35894;DHT22;21994;48.204;16.516;2022-10-16T12:30:02;21.60;99.90
35894;DHT22;21994;48.204;16.516;2022-10-16T12:32:32;21.60;99.90
35894;DHT22;21994;48.204;16.516;2022-10-16T12:35:03;21.80;99.90
35894;DHT22;21994;48.204;16.516;2022-10-16T12:37:33;22.10;99.90
35894;DHT22;21994;48.204;16.516;2022-10-16T12:40:12;22.00;99.90
35894;DHT22;21994;48.204;16.516;2022-10-16T12:42:40;22.10;99.90
35894;DHT22;21994;48.204;16.516;2022-10-16T12:45:33;22.10;99.90
35894;DHT22;21994;48.204;16.516;2022-10-16T12:48:00;22.10;99.90
35894;DHT22;21994;48.204;16.516;2022-10-16T12:50:33;22.20;99.90
35894;DHT22;21994;48.204;16.516;2022-10-16T12:53:03;22.10;99.90
35894;DHT22;21994;48.204;16.516;2022-10-16T12:56:01;22.30;99.90
35894;DHT22;21994;48.204;16.516;2022-10-16T13:04:16;22.50;99.90
35894;DHT22;21994;48.204;16.516;2022-10-16T13:07:28;22.80;99.90
35894;DHT22;21994;48.204;16.516;2022-10-16T13:10:40;22.90;99.90
35894;DHT22;21994;48.204;16.516;2022-10-16T13:16:17;23.00;99.90
35894;DHT22;21994;48.204;16.516;2022-10-16T13:22:24;23.00;99.90
35894;DHT22;21994;48.204;16.516;2022-10-16T13:28:28;23.30;99.90
35894;DHT22;21994;48.204;16.516;2022-10-16T13:30:59;23.40;99.90
35894;DHT22;21994;48.204;16.516;2022-10-16T13:33:33;23.50;99.90
35894;DHT22;21994;48.204;16.516;2022-10-16T13:36:04;23.50;99.90
35894;DHT22;21994;48.204;16.516;2022-10-16T13:38:35;23.70;99.90
35894;DHT22;21994;48.204;16.516;2022-10-16T13:43:35;24.00;99.90
35894;DHT22;21994;48.204;16.516;2022-10-16T13:46:04;23.80;99.90
35894;DHT22;21994;48.204;16.516;2022-10-16T13:48:33;23.70;99.90
35894;DHT22;21994;48.204;16.516;2022-10-16T13:51:10;23.50;99.90
35894;DHT22;21994;48.204;16.516;2022-10-16T13:53:44;23.50;99.90
35894;DHT22;21994;48.204;16.516;2022-10-16T13:56:13;23.60;99.90
35894;DHT22;21994;48.204;16.516;2022-10-16T13:58:40;23.60;99.90
35894;DHT22;21994;48.204;16.516;2022-10-16T14:01:28;23.40;99.90
35894;DHT22;21994;48.204;16.516;2022-10-16T14:04:04;22.90;99.90
35894;DHT22;21994;48.204;16.516;2022-10-16T14:06:32;22.60;99.90
35894;DHT22;21994;48.204;16.516;2022-10-16T14:09:11;22.30;99.90
35894;DHT22;21994;48.204;16.516;2022-10-16T14:11:53;22.30;99.90
35894;DHT22;21994;48.204;16.516;2022-10-16T14:14:22;22.30;99.90
35894;DHT22;21994;48.204;16.516;2022-10-16T14:16:48;22.40;99.90
35894;DHT22;21994;48.204;16.516;2022-10-16T14:19:28;22.60;99.90
35894;DHT22;21994;48.204;16.516;2022-10-16T14:21:56;22.70;99.90
35894;DHT22;21994;48.204;16.516;2022-10-16T14:24:31;22.80;99.90
35894;DHT22;21994;48.204;16.516;2022-10-16T14:26:59;22.90;99.90
35894;DHT22;21994;48.204;16.516;2022-10-16T14:29:28;22.90;99.90
35894;DHT22;21994;48.204;16.516;2022-10-16T14:32:00;22.80;99.90
35894;DHT22;21994;48.204;16.516;2022-10-16T14:34:35;22.80;99.90
35894;DHT22;21994;48.204;16.516;2022-10-16T14:39:53;22.40;99.90
35894;DHT22;21994;48.204;16.516;2022-10-16T14:42:21;22.30;99.90
35894;DHT22;21994;48.204;16.516;2022-10-16T14:44:51;22.20;99.90
35894;DHT22;21994;48.204;16.516;2022-10-16T14:47:24;22.10;99.90
35894;DHT22;21994;48.204;16.516;2022-10-16T14:49:53;21.90;99.90
35894;DHT22;21994;48.204;16.516;2022-10-16T14:52:24;21.80;99.90
35894;DHT22;21994;48.204;16.516;2022-10-16T14:54:50;21.80;99.90
35894;DHT22;21994;48.204;16.516;2022-10-16T14:57:23;21.70;99.90
35894;DHT22;21994;48.204;16.516;2022-10-16T14:59:50;21.70;99.90
35894;DHT22;21994;48.204;16.516;2022-10-16T15:02:33;21.60;99.90
35894;DHT22;21994;48.204;16.516;2022-10-16T15:05:26;21.60;99.90
35894;DHT22;21994;48.204;16.516;2022-10-16T15:07:54;21.50;99.90
35894;DHT22;21994;48.204;16.516;2022-10-16T15:10:22;21.50;99.90
35894;DHT22;21994;48.204;16.516;2022-10-16T15:12:49;21.40;99.90
35894;DHT22;21994;48.204;16.516;2022-10-16T15:17:59;21.40;99.90
35894;DHT22;21994;48.204;16.516;2022-10-16T15:20:34;21.30;99.90
35894;DHT22;21994;48.204;16.516;2022-10-16T15:23:04;21.10;99.90
35894;DHT22;21994;48.204;16.516;2022-10-16T15:25:46;20.80;99.90
35894;DHT22;21994;48.204;16.516;2022-10-16T15:28:15;20.80;99.90
35894;DHT22;21994;48.204;16.516;2022-10-16T15:30:42;20.80;99.90
35894;DHT22;21994;48.204;16.516;2022-10-16T15:33:21;20.70;99.90
35894;DHT22;21994;48.204;16.516;2022-10-16T15:35:50;20.70;99.90
35894;DHT22;21994;48.204;16.516;2022-10-16T15:38:18;20.60;99.90
35894;DHT22;21994;48.204;16.516;2022-10-16T15:40:47;20.40;99.90
35894;DHT22;21994;48.204;16.516;2022-10-16T15:43:14;20.20;99.90
35894;DHT22;21994;48.204;16.516;2022-10-16T15:45:40;20.10;99.90
35894;DHT22;21994;48.204;16.516;2022-10-16T15:48:10;19.80;99.90
35894;DHT22;21994;48.204;16.516;2022-10-16T15:50:40;19.50;99.90
35894;DHT22;21994;48.204;16.516;2022-10-16T15:53:08;19.30;99.90
35894;DHT22;21994;48.204;16.516;2022-10-16T15:55:34;19.10;99.90
35894;DHT22;21994;48.204;16.516;2022-10-16T15:58:03;19.10;99.90
35894;DHT22;21994;48.204;16.516;2022-10-16T16:00:30;18.90;99.90
35894;DHT22;21994;48.204;16.516;2022-10-16T16:02:55;18.80;99.90
35894;DHT22;21994;48.204;16.516;2022-10-16T16:05:22;18.70;99.90
35894;DHT22;21994;48.204;16.516;2022-10-16T16:07:49;18.60;99.90
35894;DHT22;21994;48.204;16.516;2022-10-16T16:10:15;18.50;99.90
35894;DHT22;21994;48.204;16.516;2022-10-16T16:12:41;18.20;99.90
35894;DHT22;21994;48.204;16.516;2022-10-16T16:15:08;18.00;99.90
35894;DHT22;21994;48.204;16.516;2022-10-16T16:17:35;17.80;99.90
35894;DHT22;21994;48.204;16.516;2022-10-16T16:20:02;17.70;99.90
35894;DHT22;21994;48.204;16.516;2022-10-16T16:22:30;17.50;99.90
35894;DHT22;21994;48.204;16.516;2022-10-16T16:24:56;17.30;99.90
35894;DHT22;21994;48.204;16.516;2022-10-16T16:27:21;17.30;99.90
35894;DHT22;21994;48.204;16.516;2022-10-16T16:29:50;17.20;99.90
35894;DHT22;21994;48.204;16.516;2022-10-16T16:32:15;17.10;99.90
35894;DHT22;21994;48.204;16.516;2022-10-16T16:34:53;16.80;99.90
35894;DHT22;21994;48.204;16.516;2022-10-16T16:37:19;16.80;99.90
35894;DHT22;21994;48.204;16.516;2022-10-16T16:39:45;16.60;99.90
35894;DHT22;21994;48.204;16.516;2022-10-16T16:42:10;16.50;99.90
35894;DHT22;21994;48.204;16.516;2022-10-16T16:44:37;16.60;99.90
35894;DHT22;21994;48.204;16.516;2022-10-16T16:47:06;16.40;99.90
35894;DHT22;21994;48.204;16.516;2022-10-16T16:49:32;16.40;99.90
35894;DHT22;21994;48.204;16.516;2022-10-16T16:51:59;16.30;99.90
35894;DHT22;21994;48.204;16.516;2022-10-16T16:54:25;16.20;99.90
35894;DHT22;21994;48.204;16.516;2022-10-16T16:56:51;16.20;99.90
35894;DHT22;21994;48.204;16.516;2022-10-16T16:59:18;16.30;99.90
35894;DHT22;21994;48.204;16.516;2022-10-16T17:01:45;16.30;99.90
35894;DHT22;21994;48.204;16.516;2022-10-16T17:04:12;16.30;99.90
35894;DHT22;21994;48.204;16.516;2022-10-16T17:06:40;16.20;99.90
35894;DHT22;21994;48.204;16.516;2022-10-16T17:09:07;16.30;99.90
35894;DHT22;21994;48.204;16.516;2022-10-16T17:11:35;16.20;99.90
35894;DHT22;21994;48.204;16.516;2022-10-16T17:14:01;16.20;99.90
35894;DHT22;21994;48.204;16.516;2022-10-16T17:16:31;16.00;99.90
35894;DHT22;21994;48.204;16.516;2022-10-16T17:19:12;16.00;99.90
35894;DHT22;21994;48.204;16.516;2022-10-16T17:21:40;16.10;99.90
35894;DHT22;21994;48.204;16.516;2022-10-16T17:24:06;16.20;99.90
35894;DHT22;21994;48.204;16.516;2022-10-16T17:26:35;16.20;99.90
35894;DHT22;21994;48.204;16.516;2022-10-16T17:29:06;16.20;99.90
35894;DHT22;21994;48.204;16.516;2022-10-16T17:31:35;16.30;99.90
35894;DHT22;21994;48.204;16.516;2022-10-16T17:34:03;16.40;99.90
35894;DHT22;21994;48.204;16.516;2022-10-16T17:36:33;16.40;99.90
35894;DHT22;21994;48.204;16.516;2022-10-16T17:39:05;16.40;99.90